»·PEaware :: UAL488 KSAN-KSFO

UAL488 :: KSAN-KSFO

FLIGHT INFORMATION

Flight Status: Arrived
Operator:
United Airlines
More flights by this operator :: More flights under this callsign
Pilot: Ulrik N. (13596)
Aircraft: AIRBUS A320
(A320)
More flights by this aircraft type
Origin: KSAN San Diego Intl-Lindbergh
United States
Destination: KSFO San Francisco Intl
United States
More flights between these airports :: More routes between these airports
Route: PADRZ2 IKAYE RIZIN SPLNT STOKD SERFR SERFR3
File this flight plan on PilotEdge
Remarks:
Altitude:
(Current/Filed)
36,000ft
Speed:
(Current/Filed)
527kts
Departed: 12-May-18 08:29 PM
Arrived: 12-May-18 09:41 PM
Distance/Time
Traveled:
388nm/1:12
Distance/Time
To Go:
Arrived

Flight Plot

Page will automatically refresh every two minutes.

Flight plan parsing failed; only flown route is shown


Map Options




Map Legend


Flown Route
Filed Route
Departure Airport
Arrival Airport
Navaid (VOR, NDB)
Fix

Horizontal Profiles

Position Reports

Time Latitude Longitude Heading Altitude Ground
Speed
12-May-18 20:10 32.733388 -117.204618 80 19ft 0kts
12-May-18 20:11 32.733388 -117.204618 80 19ft 0kts
12-May-18 20:12 32.733388 -117.204618 80 19ft 0kts
12-May-18 20:13 32.733388 -117.204618 80 19ft 0kts
12-May-18 20:14 32.733388 -117.204618 80 19ft 0kts
12-May-18 20:15 32.733388 -117.204618 80 19ft 0kts
12-May-18 20:16 32.733388 -117.204618 80 19ft 0kts
12-May-18 20:17 32.733385 -117.204633 79 19ft 0kts
12-May-18 20:18 32.733456 -117.205301 96 19ft 2kts
12-May-18 20:19 32.733491 -117.205641 38 19ft 1kts
12-May-18 20:20 32.733890 -117.205549 0 19ft 0kts
12-May-18 20:21 32.733890 -117.205549 0 19ft 0kts
12-May-18 20:22 32.733890 -117.205549 0 19ft 0kts
12-May-18 20:23 32.735672 -117.204349 58 19ft 22kts
12-May-18 20:24 32.734382 -117.197369 106 21ft 21kts
12-May-18 20:25 32.732718 -117.190472 106 22ft 21kts
12-May-18 20:26 32.730993 -117.183384 106 21ft 23kts
12-May-18 20:27 32.729494 -117.177140 102 22ft 6kts
12-May-18 20:28 32.730369 -117.176513 285 27ft 18kts
12-May-18 20:29 32.742622 -117.217519 302 1658ft 178kts
12-May-18 20:30 32.773781 -117.272768 302 3954ft 237kts
12-May-18 20:31 32.814793 -117.342176 306 6827ft 268kts
12-May-18 20:32 32.860879 -117.413438 306 9948ft 278kts
12-May-18 20:33 32.911772 -117.492429 306 11558ft 333kts
12-May-18 20:34 32.969476 -117.582280 306 13846ft 348kts
12-May-18 20:35 33.029121 -117.675478 305 16012ft 359kts
12-May-18 20:36 33.097216 -117.763474 317 18042ft 369kts
12-May-18 20:37 33.165062 -117.832533 316 19675ft 374kts
12-May-18 20:38 33.241077 -117.918169 312 21382ft 379kts
12-May-18 20:39 33.316109 -118.007681 311 22925ft 385kts
12-May-18 20:40 33.392313 -118.098860 311 24324ft 391kts
12-May-18 20:41 33.467767 -118.189390 311 25550ft 396kts
12-May-18 20:42 33.545894 -118.283371 310 26707ft 401kts
12-May-18 20:43 33.624734 -118.378469 310 27749ft 406kts
12-May-18 20:44 33.700670 -118.470315 310 28646ft 411kts
12-May-18 20:45 33.781256 -118.568049 310 29480ft 415kts
12-May-18 20:46 33.860516 -118.664444 309 30612ft 410kts
12-May-18 20:47 33.940049 -118.761452 309 31775ft 405kts
12-May-18 20:48 34.018219 -118.857059 309 32809ft 401kts
12-May-18 20:49 34.095962 -118.952406 309 33674ft 399kts
12-May-18 20:50 34.164320 -119.051396 299 34356ft 394kts
12-May-18 20:51 34.222066 -119.163462 299 35088ft 393kts
12-May-18 20:52 34.269923 -119.256529 299 35637ft 392kts
12-May-18 20:53 34.327129 -119.368105 299 36128ft 391kts
12-May-18 20:54 34.384113 -119.479600 299 36131ft 390kts
12-May-18 20:55 34.451825 -119.582433 310 36131ft 396kts
12-May-18 20:56 34.521982 -119.668784 310 36129ft 396kts
12-May-18 20:57 34.598992 -119.763805 310 36138ft 396kts
12-May-18 20:58 34.675947 -119.858998 310 36134ft 396kts
12-May-18 20:59 34.752993 -119.954568 310 36131ft 395kts
12-May-18 21:00 34.829585 -120.049843 310 36127ft 395kts
12-May-18 21:01 34.906249 -120.145479 310 36134ft 394kts
12-May-18 21:02 34.982231 -120.240534 311 36172ft 390kts
12-May-18 21:03 35.057410 -120.334856 313 36157ft 385kts
12-May-18 21:04 35.133702 -120.424315 316 36113ft 383kts
12-May-18 21:05 35.211844 -120.511918 316 36104ft 382kts
12-May-18 21:06 35.289990 -120.599751 316 36121ft 382kts
12-May-18 21:07 35.367988 -120.687657 315 36137ft 384kts
12-May-18 21:08 35.446425 -120.776298 315 36129ft 385kts
12-May-18 21:09 35.528774 -120.860157 320 36108ft 386kts
12-May-18 21:10 35.614325 -120.939605 320 36102ft 386kts
12-May-18 21:11 35.699407 -121.018806 320 36108ft 384kts
12-May-18 21:12 35.784153 -121.097905 320 36119ft 381kts
12-May-18 21:13 35.867156 -121.175592 321 35180ft 370kts
12-May-18 21:14 35.947932 -121.251384 321 32991ft 365kts
12-May-18 21:15 36.028162 -121.326859 321 30730ft 361kts
12-May-18 21:16 36.106731 -121.394559 326 28846ft 365kts
12-May-18 21:17 36.191298 -121.460571 326 27129ft 358kts
12-May-18 21:18 36.274152 -121.525407 326 25413ft 351kts
12-May-18 21:19 36.355849 -121.589473 326 23679ft 345kts
12-May-18 21:20 36.435852 -121.652368 326 21961ft 339kts
12-May-18 21:21 36.512296 -121.712646 326 20940ft 312kts
12-May-18 21:22 36.585123 -121.770206 326 19393ft 309kts
12-May-18 21:23 36.657029 -121.827165 326 17815ft 305kts
12-May-18 21:24 36.727886 -121.883424 327 16251ft 301kts
12-May-18 21:25 36.807718 -121.912607 345 14669ft 299kts
12-May-18 21:26 36.888191 -121.935137 345 13114ft 296kts
12-May-18 21:27 36.967327 -121.959072 341 11569ft 292kts
12-May-18 21:28 37.043269 -121.988761 342 10348ft 275kts
12-May-18 21:29 37.109297 -122.014601 343 9646ft 250kts
12-May-18 21:30 37.174798 -122.040222 343 8462ft 244kts
12-May-18 21:31 37.239192 -122.065458 343 7298ft 242kts
12-May-18 21:32 37.303133 -122.090570 342 6198ft 239kts
12-May-18 21:33 37.365540 -122.115097 343 5219ft 235kts
12-May-18 21:34 37.424568 -122.138312 342 4695ft 209kts
12-May-18 21:35 37.476478 -122.155900 345 4080ft 179kts
12-May-18 21:36 37.524903 -122.170702 342 3257ft 179kts
12-May-18 21:37 37.552677 -122.217512 298 2497ft 159kts
12-May-18 21:38 37.572306 -122.264386 298 1681ft 146kts
12-May-18 21:39 37.590570 -122.307972 298 933ft 137kts
12-May-18 21:40 37.608394 -122.350475 298 204ft 137kts
12-May-18 21:41 37.618979 -122.377664 270 21ft 12kts
12-May-18 21:42 37.620695 -122.384499 296 21ft 21kts
12-May-18 21:43 37.622508 -122.390057 252 21ft 12kts
12-May-18 21:44 37.619781 -122.390687 118 21ft 14kts
12-May-18 21:45 37.618459 -122.388400 142 21ft 3kts
12-May-18 21:46 37.618221 -122.388090 132 21ft 0kts
12-May-18 21:47 37.618221 -122.388090 132 21ft 0kts
12-May-18 21:48 37.618221 -122.388090 132 21ft 0kts
12-May-18 21:49 37.618221 -122.388090 132 21ft 0kts
12-May-18 21:50 37.618221 -122.388090 132 21ft 0kts
12-May-18 21:51 37.618221 -122.388090 132 21ft 0kts
12-May-18 21:52 37.618221 -122.388090 132 21ft 0kts
12-May-18 21:53 37.618221 -122.388090 132 21ft 0kts
12-May-18 21:54 37.618221 -122.388090 132 21ft 0kts
12-May-18 21:55 37.618221 -122.388090 132 21ft 0kts
12-May-18 21:56 37.618221 -122.388090 132 21ft 0kts

Navigation Log

Ident Type
Flight plan parsing failed, navigation log unavailable